Latest Weather Observations for Batchelor

IDD60801

Issued at 4:31 pm CST Sunday 29 March 2015 (issued every 30 minutes, with the page automatically refreshed every 10 minutes)

About weather observations | Map of weather stations | Latest weather observations for NT | Other Formats
Station Details ID: 014272 Name: BATCHELOR AIRPORT Lat: -13.05 Lon: 131.03 Height: 104.0 m
Data from the previous 72 hours. | See also: Recent months at Batchelor
Date/Time
CST
Temp
°C
App
Temp
°C
Dew
Point
Rel
Hum
%
Delta-T
°C
Wind Press
QNH
hPa
Press
MSL
hPa
Rain
since 9 am
mm
Dir
 
Spd
km/h
Gust
km/h
Spd
kts
Gust
kts
29/04:30pm 33.8 36.2 20.9 46 8.7 E 9 17 5 9 1010.4 1009.7 0.0
29/04:00pm 33.5 36.0 21.0 48 8.4 ESE 9 17 5 9 1010.3 1009.6 0.0
29/03:30pm 33.0 34.5 20.5 47 8.4 ESE 13 20 7 11 1010.5 1009.8 0.0
29/03:00pm 33.3 34.6 20.8 48 8.4 ESE 15 24 8 13 1010.6 1009.9 0.0
29/02:30pm 33.4 35.8 21.5 49 8.1 E 11 20 6 11 1010.9 1010.2 0.0
29/02:00pm 32.2 33.7 20.5 50 7.8 ENE 13 19 7 10 1011.2 1010.5 0.0
29/01:30pm 32.6 35.7 22.1 54 7.2 NE 9 13 5 7 1011.7 1011.0 0.0
29/01:00pm 31.8 33.8 20.7 51 7.4 E 11 20 6 11 1012.3 1011.6 0.0
29/12:30pm 31.6 33.8 21.2 54 7.0 ESE 11 20 6 11 1012.9 1012.1 0.0
29/12:00pm 31.1 35.2 23.0 62 5.6 ESE 6 15 3 8 1013.3 1012.5 0.0
29/11:30am 30.6 34.5 22.5 62 5.5 ESE 6 9 3 5 1013.7 1012.9 0.0
29/11:00am 30.3 33.8 21.9 60 5.7 E 6 9 3 5 1014.0 1013.2 0.0
29/10:30am 29.8 33.8 22.0 63 5.3 E 4 9 2 5 1014.0 1013.2 0.0
29/10:00am 29.6 32.9 21.8 63 5.3 E 7 13 4 7 1014.2 1013.4 0.0
29/09:30am 29.3 33.7 22.8 68 4.4 ESE 4 7 2 4 1014.1 1013.3 0.0
29/09:00am 28.4 33.2 23.5 75 3.4 E 4 6 2 3 1013.8 1013.0 0.0
29/08:30am 27.2 31.9 23.4 80 2.6 E 4 6 2 3 1013.6 1012.8 0.0
29/08:00am 26.2 31.4 23.5 85 1.9 SE 2 6 1 3 1013.3 1012.5 0.0
29/07:30am 24.6 30.1 23.4 93 0.8 CALM 0 0 0 0 1012.8 1012.0 0.0
29/07:00am 23.8 28.2 22.8 94 0.7 S 4 6 2 3 1012.6 1011.9 0.0
29/06:30am 23.9 28.6 22.7 93 0.8 S 2 4 1 2 1012.4 1011.7 0.0
29/06:00am 24.1 29.3 22.9 93 0.8 CALM 0 0 0 0 1012.2 1011.5 0.0
29/05:30am 24.1 29.3 22.9 93 0.8 CALM 0 0 0 0 1011.8 1011.1 0.0
29/05:00am 24.4 29.5 23.4 94 0.7 S 2 2 1 1 1011.8 1011.1 0.0
29/04:30am 24.5 29.6 23.3 93 0.8 S 2 4 1 2 1011.6 1010.9 0.0
29/04:00am 24.6 29.9 23.0 91 1.1 CALM 0 2 0 1 1011.7 1011.0 0.0
29/03:30am 25.1 30.5 23.2 89 1.3 CALM 0 0 0 0 1011.6 1010.9 0.0
29/03:00am 25.2 29.9 23.4 90 1.2 SSW 4 6 2 3 1012.0 1011.3 0.0
29/02:30am 25.4 29.6 23.5 89 1.3 SE 7 13 4 7 1012.2 1011.5 0.0
29/02:00am 25.6 31.2 23.5 88 1.4 CALM 0 2 0 1 1012.5 1011.8 0.0
29/01:30am 25.6 31.2 23.5 88 1.4 CALM 0 0 0 0 1012.8 1012.0 0.0
29/01:00am 25.9 31.0 23.4 86 1.7 ESE 2 4 1 2 1013.2 1012.4 0.0
29/12:30am 26.1 31.6 23.4 85 1.8 CALM 0 0 0 0 1013.5 1012.7 0.0
29/12:00am 26.3 31.1 24.2 88 1.5 ENE 6 9 3 5 1013.8 1013.0 0.0
 
Date/Time
CST
Temp
°C
App
Temp
°C
Dew
Point
Rel
Hum
%
Delta-T
°C
Wind Press
QNH
hPa
Press
MSL
hPa
Rain
since 9 am
mm
Dir
 
Spd
km/h
Gust
km/h
Spd
kts
Gust
kts
28/11:30pm 25.9 31.7 23.9 89 1.4 CALM 0 0 0 0 1013.6 1012.8 0.0
28/11:00pm 25.9 31.6 23.8 88 1.4 CALM 0 0 0 0 1013.5 1012.7 0.0
28/10:30pm 26.3 31.7 23.8 86 1.7 WNW 2 4 1 2 1013.4 1012.6 0.0
28/10:00pm 26.6 31.4 23.5 83 2.1 WNW 4 6 2 3 1013.3 1012.5 0.0
28/09:30pm 27.2 31.5 23.7 81 2.4 WNW 7 9 4 5 1013.3 1012.5 0.0
28/09:00pm 27.3 31.6 23.7 81 2.5 NW 7 11 4 6 1013.1 1012.3 0.0
28/08:30pm 28.0 31.3 23.2 75 3.3 NNW 11 15 6 8 1012.6 1011.9 0.0
28/08:00pm 27.1 32.4 23.1 79 2.7 CALM 0 0 0 0 1012.2 1011.5 0.0
28/07:30pm 27.6 32.9 23.0 76 3.1 CALM 0 0 0 0 1011.9 1011.2 0.0
28/07:00pm 29.2 33.9 21.9 64 4.9 CALM 0 0 0 0 1011.5 1010.8 0.0
28/06:30pm 31.2 35.5 21.9 57 6.3 ESE 2 4 1 2 1011.0 1010.3 0.0
28/06:00pm 32.5 34.8 19.4 46 8.6 E 6 7 3 4 1010.7 1010.0 0.0
28/05:30pm 32.9 35.0 19.4 45 8.9 E 7 11 4 6 1010.5 1009.8 0.0
28/05:00pm 33.1 34.9 19.6 45 8.9 ESE 9 15 5 8 1010.3 1009.6 0.0
28/04:30pm 33.0 34.0 18.7 42 9.4 ESE 11 15 6 8 1010.2 1009.5 0.0
28/04:00pm 33.4 34.4 18.7 41 9.6 E 11 17 6 9 1010.2 1009.5 0.0
28/03:30pm 33.3 34.1 19.0 42 9.4 ENE 13 20 7 11 1010.4 1009.7 0.0
28/03:00pm 33.2 34.4 20.0 45 8.8 ESE 13 20 7 11 1010.7 1010.0 0.0
28/02:30pm 32.2 33.3 18.8 45 8.8 E 11 17 6 9 1011.1 1010.4 0.0
28/02:00pm 32.5 33.4 18.3 43 9.2 E 11 19 6 10 1011.7 1011.0 0.0
28/01:30pm 32.6 33.8 19.8 46 8.5 E 13 22 7 12 1012.1 1011.4 0.0
28/01:00pm 32.4 34.1 19.3 46 8.6 ENE 9 17 5 9 1012.4 1011.7 0.0
28/12:30pm 31.7 33.9 20.3 50 7.6 ESE 9 17 5 9 1013.1 1012.3 0.0
28/12:00pm 31.4 34.9 22.1 57 6.3 E 7 11 4 6 1013.5 1012.7 0.0
28/11:30am 30.7 34.0 21.5 58 6.2 ESE 6 13 3 7 1013.8 1013.0 0.0
28/11:00am 30.2 34.1 21.8 60 5.7 NE 4 7 2 4 1014.0 1013.2 0.0
28/10:30am 29.6 33.6 22.8 67 4.7 ESE 6 9 3 5 1014.2 1013.4 0.0
28/10:00am 28.6 33.1 22.3 68 4.3 ENE 2 6 1 3 1014.1 1013.3 0.0
28/09:30am 27.7 32.2 22.9 75 3.3 ENE 4 6 2 3 1013.8 1013.0 0.0
28/09:00am 27.2 31.6 22.8 77 3.0 SE 4 7 2 4 1013.6 1012.8 3.4
28/08:30am 24.8 28.5 22.3 86 1.7 ESE 6 7 3 4 1013.4 1012.6 3.4
28/08:00am 23.5 27.3 21.6 89 1.3 ESE 4 6 2 3 1013.1 1012.3 3.4
28/07:30am 22.1 26.5 21.4 96 0.5 CALM 0 0 0 0 1012.8 1012.0 3.4
28/07:00am 21.5 25.2 20.7 95 0.5 E 2 4 1 2 1012.5 1011.8 3.4
28/06:30am 21.5 25.6 20.7 95 0.5 CALM 0 0 0 0 1012.4 1011.7 3.4
28/06:00am 21.6 25.6 20.6 94 0.6 CALM 0 0 0 0 1012.1 1011.4 3.4
28/05:30am 21.8 25.9 20.8 94 0.7 CALM 0 0 0 0 1011.8 1011.1 3.4
28/05:00am 22.0 26.3 21.2 95 0.5 CALM 0 0 0 0 1011.7 1011.0 3.4
28/04:30am 22.1 26.4 21.1 94 0.7 CALM 0 0 0 0 1011.6 1010.9 3.4
28/04:00am 22.3 26.7 21.3 94 0.7 CALM 0 0 0 0 1011.6 1010.9 3.4
28/03:30am 22.5 26.5 21.3 93 0.8 E 2 2 1 1 1011.7 1011.0 3.4
28/03:00am 22.8 26.6 21.6 93 0.8 E 4 4 2 2 1012.0 1011.3 3.4
28/02:30am 22.8 26.7 21.8 94 0.7 SE 4 6 2 3 1012.2 1011.5 3.4
28/02:00am 23.0 27.2 21.8 93 0.8 SE 2 4 1 2 1012.6 1011.9 3.4
28/01:30am 23.1 26.9 21.7 92 0.9 SE 4 6 2 3 1012.9 1012.1 3.4
28/01:00am 23.1 27.8 21.9 93 0.8 CALM 0 0 0 0 1013.3 1012.5 3.4
28/12:30am 23.0 27.6 21.8 93 0.8 CALM 0 0 0 0 1013.7 1012.9 3.4
28/12:00am 23.1 27.7 21.7 92 0.9 CALM 0 0 0 0 1013.9 1013.1 3.4
 
Date/Time
CST
Temp
°C
App
Temp
°C
Dew
Point
Rel
Hum
%
Delta-T
°C
Wind Press
QNH
hPa
Press
MSL
hPa
Rain
since 9 am
mm
Dir
 
Spd
km/h
Gust
km/h
Spd
kts
Gust
kts
27/11:30pm 23.1 27.3 21.7 92 0.9 SE 2 4 1 2 1014.2 1013.4 3.4
27/11:00pm 23.3 27.4 21.6 90 1.1 SE 2 4 1 2 1014.2 1013.4 3.4
27/10:30pm 23.4 28.0 21.7 90 1.1 CALM 0 0 0 0 1014.5 1013.8 3.4
27/10:00pm 23.6 27.6 21.3 87 1.5 SE 2 4 1 2 1014.5 1013.8 3.4
27/09:30pm 23.7 26.0 21.4 87 1.5 SE 11 17 6 9 1015.0 1014.3 3.4
27/09:00pm 24.4 25.4 21.1 82 2.2 ESE 17 26 9 14 1015.3 1014.6 3.4
27/08:30pm 25.1 27.4 22.8 87 1.6 E 15 22 8 12 1015.2 1014.5 3.4
27/08:00pm 24.6 29.9 23.0 91 1.1 CALM 0 0 0 0 1014.2 1013.4 3.4
27/07:30pm 24.8 30.0 22.9 89 1.3 CALM 0 2 0 1 1013.6 1012.8 3.4
27/07:00pm 25.1 29.6 23.0 88 1.4 SSE 4 4 2 2 1012.8 1012.0 3.4
27/06:30pm 25.7 30.2 23.0 85 1.8 SE 4 6 2 3 1012.6 1011.9 3.4
27/06:00pm 26.1 30.5 22.8 82 2.2 NE 4 4 2 2 1012.4 1011.7 3.4
27/05:30pm 26.5 31.3 22.1 77 3.0 CALM 0 0 0 0 1012.2 1011.5 3.4
27/05:00pm 26.5 30.8 21.9 76 3.1 NE 2 4 1 2 1011.7 1011.0 3.4
27/04:30pm 26.2 29.8 22.1 78 2.8 NE 6 7 3 4 1011.4 1010.7 3.4
27/04:00pm 26.1 29.8 22.2 79 2.6 E 6 9 3 5 1011.2 1010.5 3.4
27/03:30pm 25.9 30.2 22.6 82 2.2 NNE 4 9 2 5 1011.7 1011.0 3.4
27/03:00pm 25.3 29.8 22.2 83 2.1 N 2 4 1 2 1012.0 1011.3 3.4
27/02:30pm 24.9 28.8 22.6 87 1.6 NNW 6 7 3 4 1012.4 1011.7 3.4
27/02:00pm 24.6 28.3 22.5 88 1.4 N 7 11 4 6 1013.2 1012.4 3.4
27/01:30pm 24.6 28.4 22.7 89 1.3 N 7 9 4 5 1013.7 1012.9 3.4
27/01:00pm 23.8 27.6 22.4 92 0.9 NE 6 7 3 4 1014.1 1013.3 3.4
27/12:30pm 23.2 26.7 21.8 92 0.9 NNE 6 7 3 4 1014.2 1013.4 3.0
27/12:00pm 23.6 25.2 21.5 88 1.4 NE 15 24 8 13 1014.9 1014.2 1.4
27/11:30am 24.7 27.0 22.0 85 1.8 NNE 13 24 7 13 1015.2 1014.5 1.0
27/11:00am 26.0 30.1 23.9 88 1.4 E 9 13 5 7 1015.5 1014.8 1.0
27/10:30am 25.4 30.4 23.8 91 1.1 E 4 6 2 3 1015.8 1015.1 1.0
27/10:00am 24.5 29.0 22.9 91 1.1 NE 4 6 2 3 1015.9 1015.2 1.0
27/09:30am 24.8 29.7 23.6 93 0.8 NE 4 6 2 3 1016.2 1015.5 0.0
27/09:00am 24.6 28.9 23.6 94 0.7 ESE 7 9 4 5 1016.0 1015.3 55.8
27/08:30am 24.5 29.4 23.6 95 0.6 ESE 4 6 2 3 1016.2 1015.5 55.8
27/08:00am 24.3 29.0 23.4 95 0.6 ESE 4 6 2 3 1016.0 1015.3 55.6
27/07:30am 24.1 28.7 23.2 95 0.6 ESE 4 6 2 3 1015.6 1014.9 55.6
27/07:00am 24.1 28.7 23.2 95 0.6 ESE 4 6 2 3 1014.9 1014.2 55.4
27/06:30am 24.3 29.0 23.4 95 0.6 E 4 4 2 2 1014.4 1013.7 55.2
27/06:00am 24.3 29.0 23.4 95 0.6 ENE 4 7 2 4 1014.0 1013.2 55.0
27/05:30am 24.2 28.5 23.3 95 0.6 E 6 7 3 4 1013.8 1013.0 55.0
27/05:00am 24.3 28.7 23.4 95 0.6 E 6 9 3 5 1013.1 1012.3 55.0
27/04:30am 24.2 28.5 23.3 95 0.6 E 6 9 3 5 1013.3 1012.5 55.0
27/04:00am 24.1 28.2 23.2 95 0.6 E 7 13 4 7 1013.5 1012.7 55.0
27/03:30am 23.9 27.6 23.2 96 0.5 E 9 11 5 6 1013.1 1012.3 55.0
27/03:00am 23.9 27.6 23.2 96 0.5 E 9 11 5 6 1013.4 1012.6 55.0
27/02:30am 23.5 26.6 22.8 96 0.5 E 11 15 6 8 1013.6 1012.8 54.4
27/02:00am 23.3 26.6 22.6 96 0.5 E 9 11 5 6 1013.8 1013.0 54.0
27/01:30am 23.1 26.7 22.3 95 0.5 ENE 7 11 4 6 1014.5 1013.8 50.8
27/01:00am 23.2 26.4 22.4 95 0.5 ENE 9 13 5 7 1014.6 1013.9 49.0
27/12:30am 23.5 27.3 22.7 95 0.5 NNW 7 15 4 8 1014.8 1014.1 32.0
27/12:00am 23.4 25.0 22.2 93 0.8 N 17 26 9 14 1015.0 1014.3 7.0
 
Date/Time
CST
Temp
°C
App
Temp
°C
Dew
Point
Rel
Hum
%
Delta-T
°C
Wind Press
QNH
hPa
Press
MSL
hPa
Rain
since 9 am
mm
Dir
 
Spd
km/h
Gust
km/h
Spd
kts
Gust
kts
26/11:30pm 25.7 30.3 24.1 91 1.1 N 7 15 4 8 1015.3 1014.6 1.2
26/11:00pm 25.7 30.4 23.9 90 1.2 ENE 6 9 3 5 1014.3 1013.6 1.2
26/10:30pm 25.8 29.4 23.8 89 1.4 E 11 13 6 7 1014.2 1013.4 1.2
26/10:00pm 26.5 30.1 23.8 85 1.9 ENE 11 19 6 10 1014.4 1013.7 1.2
26/09:30pm 26.6 30.8 23.5 83 2.1 NE 7 13 4 7 1014.1 1013.3 1.2
26/09:00pm 26.9 31.2 23.6 82 2.3 NNE 7 15 4 8 1013.9 1013.1 1.2
26/08:30pm 27.0 31.1 23.3 80 2.5 NNE 7 13 4 7 1013.2 1012.4 1.2
26/08:00pm 27.3 30.5 23.1 78 2.9 NNE 11 24 6 13 1012.8 1012.0 1.2
26/07:30pm 26.9 31.0 22.9 79 2.7 NE 6 7 3 4 1012.2 1011.5 1.2
26/07:00pm 26.2 31.9 23.7 86 1.7 CALM 0 2 0 1 1012.1 1011.4 1.2
26/06:30pm 26.7 31.7 23.8 84 2.0 N 4 6 2 3 1012.0 1011.3 1.2
26/06:00pm 26.6 30.8 23.5 83 2.1 WNW 7 19 4 10 1011.9 1011.2 1.2
26/05:30pm 28.9 31.9 22.6 69 4.3 N 11 17 6 9 1011.0 1010.3 1.2
26/05:00pm 29.3 32.1 22.3 66 4.8 NNE 11 20 6 11 1010.1 1009.4 1.2

Other Formats:

Comma delimited format used in spreadsheet applications
http://www.bom.gov.au/fwo/IDD60801/IDD60801.94125.axf

JavaScript Object Notation format (JSON) in row-major order
http://www.bom.gov.au/fwo/IDD60801/IDD60801.94125.json